sensor_id;sensor_type;location;lat;lon;timestamp;pressure;altitude;pressure_sealevel;temperature;humidity
2549;BME280;1284;53.520;10.248;2023-03-18T00:01:01;100036.75;;;13.61;71.53
2549;BME280;1284;53.520;10.248;2023-03-18T00:03:31;100034.41;;;13.81;70.93
2549;BME280;1284;53.520;10.248;2023-03-18T00:06:11;100029.03;;;13.70;71.99
2549;BME280;1284;53.520;10.248;2023-03-18T00:08:38;100034.81;;;13.69;71.68
2549;BME280;1284;53.520;10.248;2023-03-18T00:11:05;100039.41;;;13.89;71.35
2549;BME280;1284;53.520;10.248;2023-03-18T00:13:32;100035.13;;;13.92;70.74
2549;BME280;1284;53.520;10.248;2023-03-18T00:16:03;100030.19;;;13.76;71.86
2549;BME280;1284;53.520;10.248;2023-03-18T00:18:29;100028.19;;;13.87;70.90
2549;BME280;1284;53.520;10.248;2023-03-18T00:20:56;100024.00;;;13.72;71.72
2549;BME280;1284;53.520;10.248;2023-03-18T00:23:23;100024.75;;;13.73;71.91
2549;BME280;1284;53.520;10.248;2023-03-18T00:25:51;100030.16;;;13.73;72.08
2549;BME280;1284;53.520;10.248;2023-03-18T00:28:16;100016.28;;;13.64;72.89
2549;BME280;1284;53.520;10.248;2023-03-18T00:30:42;100020.91;;;13.74;72.48
2549;BME280;1284;53.520;10.248;2023-03-18T00:33:09;100025.53;;;13.70;72.92
2549;BME280;1284;53.520;10.248;2023-03-18T00:35:36;100022.88;;;13.52;74.02
2549;BME280;1284;53.520;10.248;2023-03-18T00:38:02;100019.00;;;13.56;73.89
2549;BME280;1284;53.520;10.248;2023-03-18T00:40:29;100028.63;;;13.65;73.74
2549;BME280;1284;53.520;10.248;2023-03-18T00:43:09;100028.63;;;13.75;73.59
2549;BME280;1284;53.520;10.248;2023-03-18T00:45:39;100025.16;;;13.71;74.80
2549;BME280;1284;53.520;10.248;2023-03-18T00:48:05;100029.47;;;13.26;76.82
2549;BME280;1284;53.520;10.248;2023-03-18T00:50:33;100026.03;;;13.12;77.92
2549;BME280;1284;53.520;10.248;2023-03-18T00:52:59;100023.69;;;13.14;78.42
2549;BME280;1284;53.520;10.248;2023-03-18T00:55:25;100022.91;;;13.13;78.61
2549;BME280;1284;53.520;10.248;2023-03-18T00:57:52;100042.63;;;13.21;78.76
2549;BME280;1284;53.520;10.248;2023-03-18T01:00:18;100034.91;;;13.33;78.22
2549;BME280;1284;53.520;10.248;2023-03-18T01:02:46;100028.34;;;13.06;79.92
2549;BME280;1284;53.520;10.248;2023-03-18T01:05:14;100033.31;;;12.97;80.05
2549;BME280;1284;53.520;10.248;2023-03-18T01:07:41;100041.47;;;13.08;78.88
2549;BME280;1284;53.520;10.248;2023-03-18T01:10:08;100036.00;;;13.01;79.69
2549;BME280;1284;53.520;10.248;2023-03-18T01:12:34;100043.78;;;13.13;80.22
2549;BME280;1284;53.520;10.248;2023-03-18T01:14:59;100034.91;;;13.16;79.88
2549;BME280;1284;53.520;10.248;2023-03-18T01:17:25;100039.91;;;13.17;80.56
2549;BME280;1284;53.520;10.248;2023-03-18T01:19:51;100038.75;;;13.22;80.19
2549;BME280;1284;53.520;10.248;2023-03-18T01:22:17;100034.13;;;13.08;80.93
2549;BME280;1284;53.520;10.248;2023-03-18T01:24:46;100028.34;;;13.24;80.25
2549;BME280;1284;53.520;10.248;2023-03-18T01:27:12;100038.75;;;13.32;80.44
2549;BME280;1284;53.520;10.248;2023-03-18T01:29:40;100034.50;;;13.21;80.57
2549;BME280;1284;53.520;10.248;2023-03-18T01:32:12;100026.38;;;13.38;80.16
2549;BME280;1284;53.520;10.248;2023-03-18T01:34:38;100028.69;;;13.22;80.54
2549;BME280;1284;53.520;10.248;2023-03-18T01:37:06;100026.00;;;13.33;80.92
2549;BME280;1284;53.520;10.248;2023-03-18T01:39:34;100027.16;;;13.42;80.49
2549;BME280;1284;53.520;10.248;2023-03-18T01:42:02;100029.47;;;13.51;80.04
2549;BME280;1284;53.520;10.248;2023-03-18T01:44:31;100021.31;;;13.58;80.09
2549;BME280;1284;53.520;10.248;2023-03-18T01:46:58;100025.16;;;13.68;79.43
2549;BME280;1284;53.520;10.248;2023-03-18T01:49:31;100029.41;;;13.72;78.72
2549;BME280;1284;53.520;10.248;2023-03-18T01:52:13;100040.22;;;13.72;78.63
2549;BME280;1284;53.520;10.248;2023-03-18T01:57:12;100036.38;;;13.66;78.85
2549;BME280;1284;53.520;10.248;2023-03-18T01:59:42;100037.94;;;13.49;79.64
2549;BME280;1284;53.520;10.248;2023-03-18T02:02:13;100044.13;;;13.53;79.59
2549;BME280;1284;53.520;10.248;2023-03-18T02:04:41;100042.22;;;13.50;78.72
2549;BME280;1284;53.520;10.248;2023-03-18T02:07:18;100045.66;;;13.65;78.78
2549;BME280;1284;53.520;10.248;2023-03-18T02:09:45;100045.66;;;13.65;78.65
2549;BME280;1284;53.520;10.248;2023-03-18T02:12:12;100046.06;;;13.60;78.72
2549;BME280;1284;53.520;10.248;2023-03-18T02:14:39;100053.00;;;13.61;78.04
2549;BME280;1284;53.520;10.248;2023-03-18T02:17:10;100047.56;;;13.65;78.46
2549;BME280;1284;53.520;10.248;2023-03-18T02:22:55;100051.81;;;13.73;78.50
2549;BME280;1284;53.520;10.248;2023-03-18T02:28:13;100056.09;;;13.63;79.94
2549;BME280;1284;53.520;10.248;2023-03-18T02:30:45;100062.66;;;13.69;80.30
2549;BME280;1284;53.520;10.248;2023-03-18T02:33:15;100063.47;;;13.48;81.99
2549;BME280;1284;53.520;10.248;2023-03-18T02:35:43;100070.41;;;13.49;82.14
2549;BME280;1284;53.520;10.248;2023-03-18T02:38:10;100063.09;;;13.43;83.30
2549;BME280;1284;53.520;10.248;2023-03-18T02:40:37;100070.03;;;13.51;82.83
2549;BME280;1284;53.520;10.248;2023-03-18T02:48:35;100061.91;;;13.30;84.73
2549;BME280;1284;53.520;10.248;2023-03-18T02:51:02;100060.78;;;13.31;84.87
2549;BME280;1284;53.520;10.248;2023-03-18T02:53:27;100055.72;;;13.40;84.82
2549;BME280;1284;53.520;10.248;2023-03-18T02:55:53;100063.47;;;13.27;85.32
2549;BME280;1284;53.520;10.248;2023-03-18T02:58:18;100059.63;;;13.18;86.19
2549;BME280;1284;53.520;10.248;2023-03-18T03:00:46;100060.38;;;13.18;86.65
2549;BME280;1284;53.520;10.248;2023-03-18T03:03:11;100052.28;;;13.22;87.09
2549;BME280;1284;53.520;10.248;2023-03-18T03:05:37;100053.03;;;13.19;86.20
2549;BME280;1284;53.520;10.248;2023-03-18T03:08:03;100052.28;;;13.08;87.56
2549;BME280;1284;53.520;10.248;2023-03-18T03:10:32;100051.88;;;13.02;88.74
2549;BME280;1284;53.520;10.248;2023-03-18T03:12:58;100052.66;;;13.10;88.33
2549;BME280;1284;53.520;10.248;2023-03-18T03:15:25;100053.81;;;13.05;88.60
2549;BME280;1284;53.520;10.248;2023-03-18T03:17:55;100054.19;;;12.97;89.59
2549;BME280;1284;53.520;10.248;2023-03-18T03:20:21;100061.53;;;13.07;89.63
2549;BME280;1284;53.520;10.248;2023-03-18T03:22:46;100058.47;;;13.08;89.12
2549;BME280;1284;53.520;10.248;2023-03-18T03:25:15;100051.88;;;12.99;89.42
2549;BME280;1284;53.520;10.248;2023-03-18T03:27:42;100059.56;;;12.93;90.15
2549;BME280;1284;53.520;10.248;2023-03-18T03:30:10;100053.38;;;12.86;90.95
2549;BME280;1284;53.520;10.248;2023-03-18T03:32:36;100051.84;;;12.81;91.18
2549;BME280;1284;53.520;10.248;2023-03-18T03:35:03;100058.78;;;12.89;91.43
2549;BME280;1284;53.520;10.248;2023-03-18T03:37:29;100061.47;;;12.89;91.56
2549;BME280;1284;53.520;10.248;2023-03-18T03:39:55;100060.72;;;12.85;91.79
2549;BME280;1284;53.520;10.248;2023-03-18T03:42:22;100062.22;;;12.68;92.51
2549;BME280;1284;53.520;10.248;2023-03-18T03:44:47;100061.06;;;12.59;93.32
2549;BME280;1284;53.520;10.248;2023-03-18T03:47:12;100058.34;;;12.62;93.25
2549;BME280;1284;53.520;10.248;2023-03-18T03:49:38;100072.69;;;12.74;92.80
2549;BME280;1284;53.520;10.248;2023-03-18T03:52:04;100063.41;;;12.67;93.45
2549;BME280;1284;53.520;10.248;2023-03-18T03:54:32;100061.47;;;12.79;93.01
2549;BME280;1284;53.520;10.248;2023-03-18T03:56:59;100058.03;;;12.85;93.10
2549;BME280;1284;53.520;10.248;2023-03-18T03:59:25;100053.38;;;12.72;92.46
2549;BME280;1284;53.520;10.248;2023-03-18T04:02:10;100051.84;;;12.81;92.25
2549;BME280;1284;53.520;10.248;2023-03-18T04:04:36;100046.44;;;12.81;91.97
2549;BME280;1284;53.520;10.248;2023-03-18T04:07:02;100048.75;;;12.93;90.55
2549;BME280;1284;53.520;10.248;2023-03-18T04:09:28;100048.75;;;12.93;90.26
2549;BME280;1284;53.520;10.248;2023-03-18T04:11:54;100045.63;;;12.59;91.98
2549;BME280;1284;53.520;10.248;2023-03-18T04:14:19;100042.53;;;12.64;92.89
2549;BME280;1284;53.520;10.248;2023-03-18T04:16:45;100052.56;;;12.57;93.20
2549;BME280;1284;53.520;10.248;2023-03-18T04:19:10;100062.22;;;12.68;92.41
2549;BME280;1284;53.520;10.248;2023-03-18T04:21:36;100063.75;;;12.66;92.94
2549;BME280;1284;53.520;10.248;2023-03-18T04:24:02;100066.84;;;12.61;93.02
2549;BME280;1284;53.520;10.248;2023-03-18T04:26:29;100071.13;;;12.80;92.22
2549;BME280;1284;53.520;10.248;2023-03-18T04:28:59;100071.16;;;12.83;91.24
2549;BME280;1284;53.520;10.248;2023-03-18T04:31:24;100077.31;;;12.80;91.64
2549;BME280;1284;53.520;10.248;2023-03-18T04:33:50;100075.41;;;12.95;90.53
2549;BME280;1284;53.520;10.248;2023-03-18T04:36:15;100070.41;;;13.00;90.79
2549;BME280;1284;53.520;10.248;2023-03-18T04:38:41;100074.63;;;12.98;90.01
2549;BME280;1284;53.520;10.248;2023-03-18T04:41:07;100062.66;;;12.88;91.07
2549;BME280;1284;53.520;10.248;2023-03-18T04:43:32;100066.53;;;12.91;91.18
2549;BME280;1284;53.520;10.248;2023-03-18T04:45:59;100079.66;;;12.96;91.02
2549;BME280;1284;53.520;10.248;2023-03-18T04:48:25;100066.53;;;12.87;91.02
2549;BME280;1284;53.520;10.248;2023-03-18T04:50:54;100074.59;;;12.80;92.49
2549;BME280;1284;53.520;10.248;2023-03-18T04:53:24;100081.19;;;12.86;91.36
2549;BME280;1284;53.520;10.248;2023-03-18T04:55:50;100080.78;;;12.81;92.38
2549;BME280;1284;53.520;10.248;2023-03-18T04:58:18;100069.19;;;12.73;92.27
2549;BME280;1284;53.520;10.248;2023-03-18T05:00:56;100074.97;;;12.68;91.99
2549;BME280;1284;53.520;10.248;2023-03-18T05:03:28;100072.25;;;12.68;92.57
2549;BME280;1284;53.520;10.248;2023-03-18T05:05:54;100083.09;;;12.72;93.59
2549;BME280;1284;53.520;10.248;2023-03-18T05:08:27;100080.41;;;12.72;93.21
2549;BME280;1284;53.520;10.248;2023-03-18T05:10:52;100092.75;;;12.80;93.06
2549;BME280;1284;53.520;10.248;2023-03-18T05:13:18;100101.19;;;12.64;94.97
2549;BME280;1284;53.520;10.248;2023-03-18T05:15:45;100091.59;;;12.74;94.24
2549;BME280;1284;53.520;10.248;2023-03-18T05:18:11;100101.63;;;12.84;93.46
2549;BME280;1284;53.520;10.248;2023-03-18T05:20:37;100092.72;;;12.73;93.81
2549;BME280;1284;53.520;10.248;2023-03-18T05:23:04;100079.22;;;12.80;92.90
2549;BME280;1284;53.520;10.248;2023-03-18T05:25:40;100071.78;;;12.31;95.97
2549;BME280;1284;53.520;10.248;2023-03-18T05:28:07;100071.75;;;12.27;96.47
2549;BME280;1284;53.520;10.248;2023-03-18T05:30:41;100077.56;;;12.33;96.59
2549;BME280;1284;53.520;10.248;2023-03-18T05:33:11;100094.25;;;12.56;96.75
2549;BME280;1284;53.520;10.248;2023-03-18T05:35:44;100094.25;;;12.63;95.48
2549;BME280;1284;53.520;10.248;2023-03-18T05:38:10;100106.19;;;12.58;96.04
2549;BME280;1284;53.520;10.248;2023-03-18T05:40:36;100098.88;;;12.66;95.95
2549;BME280;1284;53.520;10.248;2023-03-18T05:43:17;100103.09;;;12.53;96.03
2549;BME280;1284;53.520;10.248;2023-03-18T05:45:50;100098.88;;;12.59;95.64
2549;BME280;1284;53.520;10.248;2023-03-18T05:48:19;100101.97;;;12.68;95.90
2549;BME280;1284;53.520;10.248;2023-03-18T05:50:50;100108.50;;;12.53;96.26
2549;BME280;1284;53.520;10.248;2023-03-18T05:53:19;100108.09;;;12.51;96.64
2549;BME280;1284;53.520;10.248;2023-03-18T05:55:48;100117.78;;;12.55;95.94
2549;BME280;1284;53.520;10.248;2023-03-18T05:58:16;100128.97;;;12.54;96.63
2549;BME280;1284;53.520;10.248;2023-03-18T06:00:44;100112.72;;;12.50;96.50
2549;BME280;1284;53.520;10.248;2023-03-18T06:03:10;100116.97;;;12.44;96.69
2549;BME280;1284;53.520;10.248;2023-03-18T06:05:35;100123.16;;;12.52;96.30
2549;BME280;1284;53.520;10.248;2023-03-18T06:08:01;100129.69;;;12.40;97.14
2549;BME280;1284;53.520;10.248;2023-03-18T06:10:26;100124.22;;;12.33;97.70
2549;BME280;1284;53.520;10.248;2023-03-18T06:12:52;100129.72;;;12.54;97.19
2549;BME280;1284;53.520;10.248;2023-03-18T06:15:20;100131.28;;;12.55;96.11
2549;BME280;1284;53.520;10.248;2023-03-18T06:17:47;100128.13;;;12.39;97.32
2549;BME280;1284;53.520;10.248;2023-03-18T06:20:13;100134.31;;;12.47;98.07
2549;BME280;1284;53.520;10.248;2023-03-18T06:22:40;100126.69;;;12.66;96.81
2549;BME280;1284;53.520;10.248;2023-03-18T06:25:06;100122.84;;;12.75;96.47
2549;BME280;1284;53.520;10.248;2023-03-18T06:27:35;100132.09;;;12.70;96.65
2549;BME280;1284;53.520;10.248;2023-03-18T06:30:03;100141.38;;;12.80;96.53
2549;BME280;1284;53.520;10.248;2023-03-18T06:32:31;100143.34;;;12.86;95.32
2549;BME280;1284;53.520;10.248;2023-03-18T06:34:58;100140.91;;;12.56;97.02
2549;BME280;1284;53.520;10.248;2023-03-18T06:37:24;100135.97;;;12.69;96.57
2549;BME280;1284;53.520;10.248;2023-03-18T06:39:50;100147.94;;;12.72;96.60
2549;BME280;1284;53.520;10.248;2023-03-18T06:42:16;100134.78;;;12.70;96.62
2549;BME280;1284;53.520;10.248;2023-03-18T06:45:00;100142.53;;;12.72;97.67
2549;BME280;1284;53.520;10.248;2023-03-18T06:47:38;100144.06;;;12.73;96.73
2549;BME280;1284;53.520;10.248;2023-03-18T06:50:05;100134.38;;;12.64;97.85
2549;BME280;1284;53.520;10.248;2023-03-18T06:52:34;100136.75;;;12.73;97.71
2549;BME280;1284;53.520;10.248;2023-03-18T06:55:08;100136.75;;;12.77;97.91
2549;BME280;1284;53.520;10.248;2023-03-18T06:57:36;100140.63;;;12.79;97.58
2549;BME280;1284;53.520;10.248;2023-03-18T07:00:02;100149.91;;;12.89;97.13
2549;BME280;1284;53.520;10.248;2023-03-18T07:02:29;100157.28;;;13.02;97.08
2549;BME280;1284;53.520;10.248;2023-03-18T07:04:57;100153.84;;;13.09;97.22
2549;BME280;1284;53.520;10.248;2023-03-18T07:07:25;100163.53;;;13.38;95.66
2549;BME280;1284;53.520;10.248;2023-03-18T07:09:51;100178.63;;;13.35;95.87
2549;BME280;1284;53.520;10.248;2023-03-18T07:12:17;100173.56;;;13.34;95.92
2549;BME280;1284;53.520;10.248;2023-03-18T07:14:43;100189.81;;;13.27;96.00
2549;BME280;1284;53.520;10.248;2023-03-18T07:17:09;100188.66;;;13.45;95.70
2549;BME280;1284;53.520;10.248;2023-03-18T07:19:35;100190.97;;;13.43;94.45
2549;BME280;1284;53.520;10.248;2023-03-18T07:22:02;100189.03;;;13.44;95.42
2549;BME280;1284;53.520;10.248;2023-03-18T07:24:30;100194.09;;;13.49;95.32
2549;BME280;1284;53.520;10.248;2023-03-18T07:26:57;100189.81;;;13.48;94.80
2549;BME280;1284;53.520;10.248;2023-03-18T07:29:23;100194.81;;;13.28;95.55
2549;BME280;1284;53.520;10.248;2023-03-18T07:31:48;100190.22;;;13.46;95.49
2549;BME280;1284;53.520;10.248;2023-03-18T07:34:14;100200.66;;;13.48;95.34
2549;BME280;1284;53.520;10.248;2023-03-18T07:36:42;100206.09;;;13.62;94.74
2549;BME280;1284;53.520;10.248;2023-03-18T07:39:08;100192.94;;;13.64;95.38
2549;BME280;1284;53.520;10.248;2023-03-18T07:41:35;100192.16;;;13.88;94.53
2549;BME280;1284;53.520;10.248;2023-03-18T07:44:01;100203.75;;;14.06;94.72
2549;BME280;1284;53.520;10.248;2023-03-18T07:46:27;100208.34;;;14.23;94.62
2549;BME280;1284;53.520;10.248;2023-03-18T07:48:53;100212.97;;;14.48;92.79
2549;BME280;1284;53.520;10.248;2023-03-18T07:51:18;100219.94;;;14.45;93.39
2549;BME280;1284;53.520;10.248;2023-03-18T07:53:44;100231.94;;;14.44;92.55
2549;BME280;1284;53.520;10.248;2023-03-18T07:56:09;100222.22;;;14.61;92.28
2549;BME280;1284;53.520;10.248;2023-03-18T07:58:35;100221.09;;;14.40;91.77
2549;BME280;1284;53.520;10.248;2023-03-18T08:01:01;100219.56;;;14.39;91.87
2549;BME280;1284;53.520;10.248;2023-03-18T08:03:27;100220.34;;;14.47;91.04
2549;BME280;1284;53.520;10.248;2023-03-18T08:05:53;100227.28;;;14.52;90.68
2549;BME280;1284;53.520;10.248;2023-03-18T08:08:18;100228.84;;;14.53;90.28
2549;BME280;1284;53.520;10.248;2023-03-18T08:10:44;100232.72;;;14.41;90.66
2549;BME280;1284;53.520;10.248;2023-03-18T08:13:10;100236.22;;;14.41;90.20
2549;BME280;1284;53.520;10.248;2023-03-18T08:18:03;100238.16;;;14.37;90.20
2549;BME280;1284;53.520;10.248;2023-03-18T08:20:28;100240.47;;;14.39;89.88
2549;BME280;1284;53.520;10.248;2023-03-18T08:22:54;100242.81;;;14.26;90.45
2549;BME280;1284;53.520;10.248;2023-03-18T08:25:20;100246.31;;;14.34;89.97
2549;BME280;1284;53.520;10.248;2023-03-18T08:27:47;100241.63;;;14.34;90.02
2549;BME280;1284;53.520;10.248;2023-03-18T08:30:13;100249.78;;;14.27;90.20
2549;BME280;1284;53.520;10.248;2023-03-18T08:32:39;100247.44;;;14.08;91.35
2549;BME280;1284;53.520;10.248;2023-03-18T08:35:06;100241.25;;;14.25;90.80
2549;BME280;1284;53.520;10.248;2023-03-18T08:37:31;100259.47;;;14.32;90.62
2549;BME280;1284;53.520;10.248;2023-03-18T08:39:58;100256.72;;;14.42;90.10
2549;BME280;1284;53.520;10.248;2023-03-18T08:42:23;100259.03;;;14.44;90.22
2549;BME280;1284;53.520;10.248;2023-03-18T08:44:48;100258.25;;;14.51;90.23
2549;BME280;1284;53.520;10.248;2023-03-18T08:47:15;100263.69;;;14.47;90.55
2549;BME280;1284;53.520;10.248;2023-03-18T08:49:40;100269.50;;;14.49;89.78
2549;BME280;1284;53.520;10.248;2023-03-18T08:52:06;100278.00;;;14.48;90.28
2549;BME280;1284;53.520;10.248;2023-03-18T08:54:31;100272.56;;;14.55;89.83
2549;BME280;1284;53.520;10.248;2023-03-18T08:56:57;100274.88;;;14.56;89.43
2549;BME280;1284;53.520;10.248;2023-03-18T08:59:23;100283.38;;;14.62;89.44
2549;BME280;1284;53.520;10.248;2023-03-18T09:01:49;100276.06;;;14.55;89.56
2549;BME280;1284;53.520;10.248;2023-03-18T09:04:14;100286.91;;;14.55;90.00
2549;BME280;1284;53.520;10.248;2023-03-18T09:06:40;100282.22;;;14.56;89.92
2549;BME280;1284;53.520;10.248;2023-03-18T09:09:07;100285.78;;;14.31;91.14
2549;BME280;1284;53.520;10.248;2023-03-18T09:11:33;100281.09;;;14.42;90.81
2549;BME280;1284;53.520;10.248;2023-03-18T09:13:59;100297.38;;;14.50;90.33
2549;BME280;1284;53.520;10.248;2023-03-18T09:16:24;100293.09;;;14.48;90.61
2549;BME280;1284;53.520;10.248;2023-03-18T09:18:50;100291.94;;;14.57;90.01
2549;BME280;1284;53.520;10.248;2023-03-18T09:21:15;100291.16;;;14.56;89.68
2549;BME280;1284;53.520;10.248;2023-03-18T09:23:41;100309.34;;;14.48;90.09
2549;BME280;1284;53.520;10.248;2023-03-18T09:26:07;100304.72;;;14.49;89.76
2549;BME280;1284;53.520;10.248;2023-03-18T09:28:33;100306.66;;;14.48;89.55
2549;BME280;1284;53.520;10.248;2023-03-18T09:30:58;100305.47;;;14.46;89.66
2549;BME280;1284;53.520;10.248;2023-03-18T09:33:24;100317.09;;;14.50;89.40
2549;BME280;1284;53.520;10.248;2023-03-18T09:35:49;100312.84;;;14.45;89.67
2549;BME280;1284;53.520;10.248;2023-03-18T09:38:17;100315.94;;;14.51;89.69
2549;BME280;1284;53.520;10.248;2023-03-18T09:43:43;100334.09;;;14.58;89.39
2549;BME280;1284;53.520;10.248;2023-03-18T09:46:21;100322.91;;;14.41;90.56
2549;BME280;1284;53.520;10.248;2023-03-18T09:51:39;100330.28;;;14.52;91.24
2549;BME280;1284;53.520;10.248;2023-03-18T09:54:14;100327.94;;;14.54;91.38
2549;BME280;1284;53.520;10.248;2023-03-18T09:56:41;100335.25;;;14.64;91.32
2549;BME280;1284;53.520;10.248;2023-03-18T09:59:17;100339.53;;;14.65;91.28
2549;BME280;1284;53.520;10.248;2023-03-18T10:01:46;100330.63;;;14.68;91.23
2549;BME280;1284;53.520;10.248;2023-03-18T10:04:22;100334.47;;;14.77;90.68
2549;BME280;1284;53.520;10.248;2023-03-18T10:06:57;100332.94;;;14.73;91.00
2549;BME280;1284;53.520;10.248;2023-03-18T10:09:35;100336.81;;;14.79;91.34
2549;BME280;1284;53.520;10.248;2023-03-18T10:12:12;100346.47;;;14.94;90.76
2549;BME280;1284;53.520;10.248;2023-03-18T10:15:17;100338.66;;;15.06;90.70
2549;BME280;1284;53.520;10.248;2023-03-18T10:17:52;100341.28;;;15.42;91.55
2549;BME280;1284;53.520;10.248;2023-03-18T10:20:37;100334.22;;;16.16;89.24
2549;BME280;1284;53.520;10.248;2023-03-18T10:23:33;100349.53;;;16.44;87.17
2549;BME280;1284;53.520;10.248;2023-03-18T10:26:13;100349.56;;;16.41;86.58
2549;BME280;1284;53.520;10.248;2023-03-18T10:34:20;100364.50;;;17.03;82.28
2549;BME280;1284;53.520;10.248;2023-03-18T10:37:09;100371.28;;;16.88;81.51
2549;BME280;1284;53.520;10.248;2023-03-18T10:39:40;100375.59;;;16.86;80.82
2549;BME280;1284;53.520;10.248;2023-03-18T10:42:26;100371.03;;;16.76;81.00
2549;BME280;1284;53.520;10.248;2023-03-18T10:45:06;100368.00;;;16.67;81.89
2549;BME280;1284;53.520;10.248;2023-03-18T10:47:35;100365.34;;;16.60;81.82
2549;BME280;1284;53.520;10.248;2023-03-18T10:50:19;100370.78;;;16.60;81.89
2549;BME280;1284;53.520;10.248;2023-03-18T10:52:53;100371.16;;;16.62;81.03
2549;BME280;1284;53.520;10.248;2023-03-18T10:55:29;100372.00;;;16.52;81.53
2549;BME280;1284;53.520;10.248;2023-03-18T10:57:58;100366.56;;;16.52;81.29
2549;BME280;1284;53.520;10.248;2023-03-18T11:00:31;100372.91;;;16.35;82.48
2549;BME280;1284;53.520;10.248;2023-03-18T11:02:57;100371.03;;;16.24;82.76
2549;BME280;1284;53.520;10.248;2023-03-18T11:05:31;100369.16;;;16.14;84.02
2549;BME280;1284;53.520;10.248;2023-03-18T11:08:00;100368.75;;;16.19;83.82
2549;BME280;1284;53.520;10.248;2023-03-18T11:10:30;100366.81;;;16.20;84.78
2549;BME280;1284;53.520;10.248;2023-03-18T11:12:58;100371.25;;;16.48;83.46
2549;BME280;1284;53.520;10.248;2023-03-18T11:15:28;100365.72;;;16.62;81.73
2549;BME280;1284;53.520;10.248;2023-03-18T11:17:58;100370.72;;;16.67;82.50
2549;BME280;1284;53.520;10.248;2023-03-18T11:20:37;100376.44;;;16.79;82.14
2549;BME280;1284;53.520;10.248;2023-03-18T11:23:34;100382.28;;;17.15;80.92
2549;BME280;1284;53.520;10.248;2023-03-18T11:26:23;100378.81;;;17.48;78.77
2549;BME280;1284;53.520;10.248;2023-03-18T11:28:53;100371.81;;;17.77;77.50
2549;BME280;1284;53.520;10.248;2023-03-18T11:31:20;100374.91;;;17.79;76.02
2549;BME280;1284;53.520;10.248;2023-03-18T11:33:46;100377.63;;;18.06;74.45
2549;BME280;1284;53.520;10.248;2023-03-18T11:36:22;100380.09;;;18.24;74.12
2549;BME280;1284;53.520;10.248;2023-03-18T11:39:08;100377.88;;;18.42;74.97
2549;BME280;1284;53.520;10.248;2023-03-18T11:41:38;100378.97;;;18.71;72.63
2549;BME280;1284;53.520;10.248;2023-03-18T11:44:15;100387.97;;;19.11;70.01
2549;BME280;1284;53.520;10.248;2023-03-18T11:47:18;100383.38;;;19.27;68.00
2549;BME280;1284;53.520;10.248;2023-03-18T11:49:46;100388.69;;;19.15;67.37
2549;BME280;1284;53.520;10.248;2023-03-18T11:52:26;100383.47;;;19.24;65.47
2549;BME280;1284;53.520;10.248;2023-03-18T11:55:08;100389.53;;;19.31;64.25
2549;BME280;1284;53.520;10.248;2023-03-18T12:01:14;100390.13;;;19.00;66.84
2549;BME280;1284;53.520;10.248;2023-03-18T12:03:39;100391.53;;;18.88;66.65
2549;BME280;1284;53.520;10.248;2023-03-18T12:06:20;100388.75;;;19.11;66.39
2549;BME280;1284;53.520;10.248;2023-03-18T12:11:58;100390.41;;;19.05;65.86
2549;BME280;1284;53.520;10.248;2023-03-18T12:14:58;100384.63;;;19.23;65.59
2549;BME280;1284;53.520;10.248;2023-03-18T12:17:49;100386.53;;;19.45;62.98
2549;BME280;1284;53.520;10.248;2023-03-18T12:26:02;100396.19;;;19.69;60.61
2549;BME280;1284;53.520;10.248;2023-03-18T12:34:03;100390.31;;;19.71;61.46
2549;BME280;1284;53.520;10.248;2023-03-18T12:36:56;100398.97;;;19.86;60.15
2549;BME280;1284;53.520;10.248;2023-03-18T12:39:48;100396.13;;;20.09;60.49
2549;BME280;1284;53.520;10.248;2023-03-18T12:42:43;100402.81;;;20.56;57.90
2549;BME280;1284;53.520;10.248;2023-03-18T12:45:09;100405.56;;;20.56;56.85
2549;BME280;1284;53.520;10.248;2023-03-18T12:52:44;100399.31;;;21.04;53.10
2549;BME280;1284;53.520;10.248;2023-03-18T12:55:19;100404.63;;;20.79;54.50
2549;BME280;1284;53.520;10.248;2023-03-18T12:58:19;100404.00;;;20.87;53.67
2549;BME280;1284;53.520;10.248;2023-03-18T13:05:54;100396.41;;;20.46;54.12
2549;BME280;1284;53.520;10.248;2023-03-18T13:14:14;100406.94;;;20.48;56.00
2549;BME280;1284;53.520;10.248;2023-03-18T13:16:46;100401.94;;;20.75;54.65
2549;BME280;1284;53.520;10.248;2023-03-18T13:19:12;100397.88;;;20.35;56.05
2549;BME280;1284;53.520;10.248;2023-03-18T13:21:42;100397.59;;;20.78;54.37
2549;BME280;1284;53.520;10.248;2023-03-18T13:24:15;100397.56;;;20.94;53.94
2549;BME280;1284;53.520;10.248;2023-03-18T13:29:50;100405.53;;;21.04;51.80
2549;BME280;1284;53.520;10.248;2023-03-18T13:43:19;100408.94;;;20.12;54.30
2549;BME280;1284;53.520;10.248;2023-03-18T13:45:49;100403.59;;;20.24;54.52
2549;BME280;1284;53.520;10.248;2023-03-18T13:48:19;100406.63;;;20.10;55.32
2549;BME280;1284;53.520;10.248;2023-03-18T13:50:48;100405.31;;;20.18;54.88
2549;BME280;1284;53.520;10.248;2023-03-18T13:53:20;100406.34;;;20.24;54.66
2549;BME280;1284;53.520;10.248;2023-03-18T13:55:58;100403.09;;;20.29;54.55
2549;BME280;1284;53.520;10.248;2023-03-18T13:58:26;100402.66;;;20.31;54.28
2549;BME280;1284;53.520;10.248;2023-03-18T14:03:27;100395.31;;;19.92;54.56
2549;BME280;1284;53.520;10.248;2023-03-18T14:14:01;100401.59;;;19.34;57.16
2549;BME280;1284;53.520;10.248;2023-03-18T14:19:22;100398.94;;;20.05;54.87
2549;BME280;1284;53.520;10.248;2023-03-18T14:22:32;100398.16;;;20.05;54.58
2549;BME280;1284;53.520;10.248;2023-03-18T14:33:00;100400.69;;;20.31;53.58
2549;BME280;1284;53.520;10.248;2023-03-18T14:35:31;100400.88;;;20.73;52.61
2549;BME280;1284;53.520;10.248;2023-03-18T14:38:08;100396.50;;;20.27;52.76
2549;BME280;1284;53.520;10.248;2023-03-18T14:40:48;100395.91;;;20.51;52.21
2549;BME280;1284;53.520;10.248;2023-03-18T14:45:46;100395.00;;;20.87;50.88
2549;BME280;1284;53.520;10.248;2023-03-18T14:48:24;100393.22;;;20.96;50.99
2549;BME280;1284;53.520;10.248;2023-03-18T14:50:55;100389.59;;;21.15;50.54
2549;BME280;1284;53.520;10.248;2023-03-18T14:53:27;100393.88;;;21.00;51.64